Hovedside
METAR-TAF:

METAR-TAF

Lufthavner :

Kuala Terengganu, Malaysia

breddegrad: 05-22-53N, lengdegrad: 103-06-17E, høyde over havet: 6 m

Gjeldene værobservasjon

Denne rapporten ble laget for 41 minutter siden, klokken 19:00 UTC
Vind 3 kt fra Sør, skiftende mellom Sørøst og Sørvest
Temperatur 28°C
Luftfuktighet 89%
Trykk 1008 hPa
Sikt 10 km eller mer
Få skyer i en høyde av 1700 ft, Bygeskyer.

METAR: WMKN 241900Z 17003KT 130V220 9999 FEW017CB 28/26 Q1008

Tid: 03:41 (19:41 UTC)

Varsel

Denne rapporten ble laget for 2 timer og 41 minutter siden, klokken 17:00 UTC
Varsel gyldig fra 24. klokken 18 UTC til 25. klokken 18 UTC
Vind 3 kt fra skiftende retning
Sikt 10 km eller mer
Få skyer i en høyde av 2200 ft

TAF: WMKN 241700Z 2418/2518 VRB03KT 9999 FEW022

Værobservasjoner og værvarsel for over 4000 flyplasser (METAR- og TAF-rapporter).

Tilgjengelige stasjoner er representert av de røde og gule prikkene på kartet.

Hold musepekeren over prikken for å se navnet på stasjonen.

Klikk så for å se værobservasjoner og -varsler.

For å forandre kartet kan du klikke på den grønne knappen med svart kryss for å zoome inn, på den grønne knappen med strek for å zoome ut, eller på de grønne pilene for å se tilstøtende kart.


METAR-TAF: